createdAt,value
2022-07-28T00:00:18.450Z,999.06
2022-07-28T00:01:20.025Z,999.03
2022-07-28T00:02:18.450Z,999.06
2022-07-28T00:03:18.533Z,998.96
2022-07-28T00:04:18.394Z,998.99
2022-07-28T00:05:18.372Z,998.94
2022-07-28T00:06:18.409Z,998.99
2022-07-28T00:07:18.382Z,999.04
2022-07-28T00:08:18.376Z,999.10
2022-07-28T00:09:18.419Z,999.01
2022-07-28T00:10:18.357Z,999.04
2022-07-28T00:11:18.382Z,999.02
2022-07-28T00:12:18.355Z,999.10
2022-07-28T00:13:18.412Z,999.06
2022-07-28T00:14:18.278Z,999.10
2022-07-28T00:15:18.403Z,999.08
2022-07-28T00:16:18.403Z,999.11
2022-07-28T00:17:18.647Z,999.04
2022-07-28T00:18:18.311Z,999.08
2022-07-28T00:19:18.298Z,999.02
2022-07-28T00:20:18.173Z,999.02
2022-07-28T00:21:18.210Z,999.02
2022-07-28T00:22:18.252Z,999.01
2022-07-28T00:23:18.211Z,998.98
2022-07-28T00:24:18.180Z,998.97
2022-07-28T00:25:18.177Z,999.00
2022-07-28T00:26:18.160Z,998.96
2022-07-28T00:27:19.404Z,999.04
2022-07-28T00:28:19.240Z,999.05
2022-07-28T00:29:18.127Z,998.94
2022-07-28T00:30:18.211Z,999.04
2022-07-28T00:31:18.240Z,999.02
2022-07-28T00:32:19.325Z,998.95
2022-07-28T00:33:18.211Z,998.94
2022-07-28T00:34:18.242Z,999.00
2022-07-28T00:35:30.419Z,998.92
2022-07-28T00:36:19.102Z,998.95
2022-07-28T00:37:19.138Z,998.89
2022-07-28T00:38:18.282Z,998.83
2022-07-28T00:39:19.133Z,998.88
2022-07-28T00:40:18.229Z,998.87
2022-07-28T00:41:18.130Z,998.90
2022-07-28T00:42:18.115Z,998.92
2022-07-28T00:43:18.120Z,998.94
2022-07-28T00:44:18.144Z,998.91
2022-07-28T00:45:18.130Z,998.91
2022-07-28T00:46:18.113Z,998.90
2022-07-28T00:47:18.059Z,998.81
2022-07-28T00:48:18.101Z,998.83
2022-07-28T00:49:18.220Z,998.86
2022-07-28T00:50:18.046Z,998.86
2022-07-28T00:51:18.036Z,998.80
2022-07-28T00:52:18.039Z,998.85
2022-07-28T00:53:18.025Z,998.88
2022-07-28T00:54:18.045Z,998.82
2022-07-28T00:55:18.102Z,998.81
2022-07-28T00:56:18.034Z,998.77
2022-07-28T00:57:17.928Z,998.79
2022-07-28T00:58:17.999Z,998.79
2022-07-28T00:59:18.075Z,998.81
2022-07-28T01:00:18.049Z,998.80
2022-07-28T01:01:18.456Z,998.79
2022-07-28T01:02:18.050Z,998.82
2022-07-28T01:03:17.989Z,998.77
2022-07-28T01:04:18.163Z,998.74
2022-07-28T01:05:17.904Z,998.83
2022-07-28T01:06:18.862Z,998.78
2022-07-28T01:07:17.854Z,998.72
2022-07-28T01:08:17.853Z,998.73
2022-07-28T01:09:17.856Z,998.79
2022-07-28T01:10:17.953Z,998.70
2022-07-28T01:11:17.918Z,998.73
2022-07-28T01:12:17.907Z,998.81
2022-07-28T01:13:17.873Z,998.77
2022-07-28T01:14:18.373Z,998.79
2022-07-28T01:15:17.867Z,998.80
2022-07-28T01:16:18.378Z,998.69
2022-07-28T01:17:18.880Z,998.76
2022-07-28T01:18:17.885Z,998.74
2022-07-28T01:19:17.852Z,998.72
2022-07-28T01:20:17.927Z,998.77
2022-07-28T01:21:17.914Z,998.69
2022-07-28T01:22:17.911Z,998.70
2022-07-28T01:23:17.825Z,998.71
2022-07-28T01:24:18.769Z,998.74
2022-07-28T01:25:17.802Z,998.77
2022-07-28T01:26:17.846Z,998.75
2022-07-28T01:27:17.803Z,998.75
2022-07-28T01:28:17.824Z,998.75
2022-07-28T01:29:17.748Z,998.78
2022-07-28T01:30:17.805Z,998.76
2022-07-28T01:31:17.802Z,998.78
2022-07-28T01:32:17.787Z,998.83
2022-07-28T01:33:17.782Z,998.79
2022-07-28T01:34:17.823Z,998.80
2022-07-28T01:35:17.746Z,998.75
2022-07-28T01:36:17.735Z,998.75
2022-07-28T01:37:18.294Z,998.80
2022-07-28T01:38:17.737Z,998.76
2022-07-28T01:39:17.706Z,998.79
2022-07-28T01:40:17.716Z,998.85
2022-07-28T01:41:17.611Z,998.86
2022-07-28T01:42:17.716Z,998.74
2022-07-28T01:43:17.750Z,998.81
2022-07-28T01:44:17.827Z,998.77
2022-07-28T01:45:17.770Z,998.84
2022-07-28T01:46:17.722Z,998.77
2022-07-28T01:47:17.765Z,998.77
2022-07-28T01:48:17.665Z,998.72
2022-07-28T01:49:17.832Z,998.71
2022-07-28T01:50:17.564Z,998.80
2022-07-28T01:51:17.596Z,998.73
2022-07-28T01:52:17.543Z,998.76
2022-07-28T01:53:17.640Z,998.71
2022-07-28T01:54:17.816Z,998.73
2022-07-28T01:55:17.521Z,998.71
2022-07-28T01:56:17.578Z,998.65
2022-07-28T01:57:17.601Z,998.65
2022-07-28T01:58:17.594Z,998.58
2022-07-28T01:59:17.532Z,998.67
2022-07-28T02:00:17.554Z,998.64
2022-07-28T02:01:17.588Z,998.66
2022-07-28T02:02:17.546Z,998.62
2022-07-28T02:03:17.589Z,998.54
2022-07-28T02:04:17.716Z,998.60
2022-07-28T02:05:19.168Z,998.65
2022-07-28T02:06:17.582Z,998.68
2022-07-28T02:07:17.537Z,998.64
2022-07-28T02:08:17.638Z,998.65
2022-07-28T02:09:17.501Z,998.61
2022-07-28T02:10:17.601Z,998.59
2022-07-28T02:11:17.512Z,998.58
2022-07-28T02:12:17.480Z,998.61
2022-07-28T02:13:17.470Z,998.59
2022-07-28T02:14:18.591Z,998.59
2022-07-28T02:15:17.446Z,998.62
2022-07-28T02:16:17.545Z,998.59
2022-07-28T02:17:17.462Z,998.59
2022-07-28T02:18:17.459Z,998.62
2022-07-28T02:19:17.369Z,998.54
2022-07-28T02:20:17.353Z,998.59
2022-07-28T02:21:17.312Z,998.61
2022-07-28T02:22:17.352Z,998.62
2022-07-28T02:23:17.341Z,998.68
2022-07-28T02:24:17.737Z,998.60
2022-07-28T02:25:17.317Z,998.63
2022-07-28T02:26:17.371Z,998.62
2022-07-28T02:27:17.321Z,998.57
2022-07-28T02:28:17.353Z,998.54
2022-07-28T02:29:40.456Z,998.56
2022-07-28T02:30:19.295Z,998.52
2022-07-28T02:31:17.393Z,998.68
2022-07-28T02:32:27.934Z,998.57
2022-07-28T02:33:23.308Z,998.64
2022-07-28T02:34:18.516Z,998.56
2022-07-28T02:35:17.307Z,998.50
2022-07-28T02:36:17.301Z,998.53
2022-07-28T02:37:17.292Z,998.52
2022-07-28T02:38:17.277Z,998.48
2022-07-28T02:39:17.286Z,998.52
2022-07-28T02:40:17.311Z,998.48
2022-07-28T02:41:17.285Z,998.50
2022-07-28T02:42:17.256Z,998.51
2022-07-28T02:43:17.251Z,998.49
2022-07-28T02:44:17.596Z,998.53
2022-07-28T02:45:17.249Z,998.50
2022-07-28T02:46:17.351Z,998.46
2022-07-28T02:47:17.219Z,998.55
2022-07-28T02:48:17.270Z,998.55
2022-07-28T02:49:17.247Z,998.55
2022-07-28T02:50:17.306Z,998.48
2022-07-28T02:51:17.224Z,998.47
2022-07-28T02:52:17.136Z,998.48
2022-07-28T02:53:17.109Z,998.49
2022-07-28T02:54:17.558Z,998.53
2022-07-28T02:55:17.097Z,998.49
2022-07-28T02:56:17.129Z,998.47
2022-07-28T02:57:17.128Z,998.46
2022-07-28T02:58:17.131Z,998.49
2022-07-28T02:59:17.153Z,998.46
2022-07-28T03:00:17.163Z,998.45
2022-07-28T03:01:17.213Z,998.40
2022-07-28T03:02:17.236Z,998.45
2022-07-28T03:03:17.131Z,998.39
2022-07-28T03:04:17.517Z,998.42
2022-07-28T03:05:17.127Z,998.45
2022-07-28T03:06:17.104Z,998.51
2022-07-28T03:07:17.072Z,998.49
2022-07-28T03:08:17.123Z,998.41
2022-07-28T03:09:17.097Z,998.48
2022-07-28T03:10:17.070Z,998.45
2022-07-28T03:11:18.127Z,998.50
2022-07-28T03:12:17.018Z,998.44
2022-07-28T03:13:17.156Z,998.50
2022-07-28T03:14:17.231Z,998.58
2022-07-28T03:15:16.995Z,998.55
2022-07-28T03:16:17.007Z,998.51
2022-07-28T03:17:17.071Z,998.54
2022-07-28T03:18:16.957Z,998.54
2022-07-28T03:19:16.926Z,998.60
2022-07-28T03:20:16.962Z,998.56
2022-07-28T03:21:16.913Z,998.58
2022-07-28T03:22:17.036Z,998.56
2022-07-28T03:23:17.052Z,998.56
2022-07-28T03:24:17.234Z,998.52
2022-07-28T03:25:16.982Z,998.54
2022-07-28T03:26:16.978Z,998.46
2022-07-28T03:27:16.958Z,998.50
2022-07-28T03:28:16.925Z,998.52
2022-07-28T03:29:16.975Z,998.53
2022-07-28T03:30:16.949Z,998.51
2022-07-28T03:31:17.051Z,998.54
2022-07-28T03:32:16.892Z,998.55
2022-07-28T03:33:16.913Z,998.51
2022-07-28T03:34:17.344Z,998.49
2022-07-28T03:35:16.922Z,998.53
2022-07-28T03:36:16.994Z,998.54
2022-07-28T03:37:16.903Z,998.52
2022-07-28T03:38:17.770Z,998.49
2022-07-28T03:39:16.881Z,998.53
2022-07-28T03:40:16.934Z,998.44
2022-07-28T03:41:16.852Z,998.44
2022-07-28T03:42:16.962Z,998.51
2022-07-28T03:43:16.834Z,998.53
2022-07-28T03:44:27.934Z,998.50
2022-07-28T03:45:17.866Z,998.53
2022-07-28T03:46:16.894Z,998.57
2022-07-28T03:47:16.811Z,998.57
2022-07-28T03:48:16.827Z,998.54
2022-07-28T03:49:16.856Z,998.60
2022-07-28T03:50:16.832Z,998.56
2022-07-28T03:51:16.791Z,998.61
2022-07-28T03:52:16.816Z,998.57
2022-07-28T03:53:16.781Z,998.54
2022-07-28T03:54:17.133Z,998.58
2022-07-28T03:55:16.819Z,998.63
2022-07-28T03:56:16.729Z,998.57
2022-07-28T03:57:16.799Z,998.63
2022-07-28T03:58:16.754Z,998.57
2022-07-28T03:59:16.810Z,998.62
2022-07-28T04:00:16.782Z,998.54
2022-07-28T04:01:16.777Z,998.55
2022-07-28T04:02:16.707Z,998.50
2022-07-28T04:03:34.943Z,998.54
2022-07-28T04:04:18.108Z,998.57
2022-07-28T04:05:16.623Z,998.55
2022-07-28T04:06:16.625Z,998.61
2022-07-28T04:07:16.622Z,998.60
2022-07-28T04:08:16.561Z,998.59
2022-07-28T04:09:16.590Z,998.55
2022-07-28T04:10:16.585Z,998.56
2022-07-28T04:11:16.655Z,998.65
2022-07-28T04:12:16.581Z,998.60
2022-07-28T04:13:16.579Z,998.60
2022-07-28T04:14:17.209Z,998.61
2022-07-28T04:15:17.537Z,998.64
2022-07-28T04:16:16.617Z,998.56
2022-07-28T04:17:16.648Z,998.66
2022-07-28T04:18:16.612Z,998.57
2022-07-28T04:19:16.589Z,998.55
2022-07-28T04:20:16.642Z,998.60
2022-07-28T06:50:24.988Z,998.46
2022-07-28T06:51:15.464Z,998.35
2022-07-28T06:52:14.554Z,998.36
2022-07-28T06:53:14.444Z,998.35
2022-07-28T06:54:14.753Z,998.37
2022-07-28T06:55:14.488Z,998.34
2022-07-28T06:56:15.788Z,998.31
2022-07-28T06:57:14.507Z,998.24
2022-07-28T06:58:14.550Z,998.29
2022-07-28T06:59:14.861Z,998.25
2022-07-28T07:00:15.702Z,998.22
2022-07-28T07:01:15.708Z,998.30
2022-07-28T07:02:15.644Z,998.34
2022-07-28T07:03:15.589Z,998.27
2022-07-28T07:04:15.926Z,998.27
2022-07-28T07:05:15.552Z,998.25
2022-07-28T07:06:15.603Z,998.21
2022-07-28T07:07:17.147Z,998.17
2022-07-28T07:08:15.572Z,998.15
2022-07-28T07:09:15.560Z,998.18
2022-07-28T07:10:15.566Z,998.16
2022-07-28T07:11:15.573Z,998.17
2022-07-28T07:12:15.542Z,998.21
2022-07-28T07:13:15.573Z,998.25
2022-07-28T07:14:15.885Z,998.16
2022-07-28T07:15:15.422Z,998.17
2022-07-28T07:16:15.485Z,998.24
2022-07-28T07:17:15.408Z,998.26
2022-07-28T07:18:15.528Z,998.20
2022-07-28T07:19:16.029Z,998.13
2022-07-28T07:20:17.118Z,998.15
2022-07-28T07:21:15.390Z,998.09
2022-07-28T07:22:15.431Z,998.07
2022-07-28T07:23:15.457Z,998.17
2022-07-28T07:24:15.671Z,998.09
2022-07-28T07:25:15.391Z,998.11
2022-07-28T07:26:15.449Z,998.09
2022-07-28T07:27:15.474Z,998.10
2022-07-28T07:28:15.490Z,998.10
2022-07-28T07:29:15.389Z,998.09
2022-07-28T07:30:15.425Z,998.08
2022-07-28T07:31:15.484Z,998.10
2022-07-28T07:32:15.413Z,998.12
2022-07-28T07:33:15.452Z,998.07
2022-07-28T07:34:15.595Z,998.13
2022-07-28T07:35:15.323Z,998.06
2022-07-28T07:36:15.434Z,998.12
2022-07-28T07:37:15.372Z,998.06
2022-07-28T07:38:15.437Z,998.11
2022-07-28T07:39:15.412Z,998.09
2022-07-28T07:40:15.404Z,998.09
2022-07-28T07:41:15.304Z,998.11
2022-07-28T07:42:15.425Z,998.09
2022-07-28T07:43:15.391Z,998.05
2022-07-28T07:44:15.784Z,998.01
2022-07-28T07:45:15.324Z,998.01
2022-07-28T07:46:15.341Z,998.05
2022-07-28T07:47:15.324Z,997.95
2022-07-28T07:48:16.251Z,998.00
2022-07-28T07:49:15.376Z,998.04
2022-07-28T07:50:15.292Z,997.94
2022-07-28T07:51:15.787Z,997.97
2022-07-28T07:52:16.252Z,997.98
2022-07-28T07:53:15.329Z,997.97
2022-07-28T07:54:15.520Z,997.90
2022-07-28T07:55:15.311Z,997.99
2022-07-28T07:56:15.203Z,997.91
2022-07-28T07:57:15.103Z,997.93
2022-07-28T07:58:15.126Z,997.95
2022-07-28T07:59:15.210Z,997.93
2022-07-28T08:00:28.197Z,997.84
2022-07-28T08:01:16.197Z,997.81
2022-07-28T08:02:15.407Z,997.92
2022-07-28T08:03:15.170Z,997.90
2022-07-28T08:04:15.708Z,997.88
2022-07-28T08:05:15.112Z,997.86
2022-07-28T08:06:15.111Z,997.84
2022-07-28T08:07:15.046Z,997.83
2022-07-28T08:08:15.111Z,997.89
2022-07-28T08:09:15.099Z,997.85
2022-07-28T08:10:16.165Z,997.79
2022-07-28T08:11:15.149Z,997.82
2022-07-28T08:12:15.079Z,997.84
2022-07-28T08:13:15.124Z,997.85
2022-07-28T08:14:15.436Z,997.80
2022-07-28T08:15:15.104Z,997.74
2022-07-28T08:16:15.163Z,997.73
2022-07-28T08:17:15.055Z,997.71
2022-07-28T08:18:15.096Z,997.71
2022-07-28T08:19:15.046Z,997.76
2022-07-28T08:20:15.088Z,997.76
2022-07-28T08:21:15.063Z,997.74
2022-07-28T08:22:15.083Z,997.83
2022-07-28T08:23:15.027Z,997.75
2022-07-28T08:24:29.007Z,997.72
2022-07-28T08:25:16.005Z,997.76
2022-07-28T08:26:14.991Z,997.71
2022-07-28T08:27:14.894Z,997.68
2022-07-28T08:28:14.851Z,997.65
2022-07-28T08:29:14.876Z,997.71
2022-07-28T08:30:14.863Z,997.74
2022-07-28T08:31:15.006Z,997.67
2022-07-28T08:32:14.854Z,997.67
2022-07-28T08:33:14.996Z,997.65
2022-07-28T08:34:31.186Z,997.63
2022-07-28T08:35:32.878Z,997.59
2022-07-28T08:36:17.723Z,997.62
2022-07-28T08:37:14.879Z,997.64
2022-07-28T08:38:14.910Z,997.61
2022-07-28T08:39:14.905Z,997.59
2022-07-28T08:40:14.874Z,997.57
2022-07-28T08:41:14.767Z,997.56
2022-07-28T08:42:14.942Z,997.58
2022-07-28T08:43:14.942Z,997.57
2022-07-28T08:44:15.088Z,997.52
2022-07-28T08:45:14.956Z,997.56
2022-07-28T08:46:14.942Z,997.54
2022-07-28T08:47:14.946Z,997.56
2022-07-28T08:48:14.852Z,997.54
2022-07-28T08:49:15.051Z,997.54
2022-07-28T08:50:14.797Z,997.48
2022-07-28T08:51:14.935Z,997.60
2022-07-28T08:52:14.840Z,997.47
2022-07-28T08:53:14.759Z,997.52
2022-07-28T08:54:15.251Z,997.58
2022-07-28T08:55:19.390Z,997.55
2022-07-28T08:56:15.789Z,997.55
2022-07-28T08:57:14.837Z,997.59
2022-07-28T08:58:14.774Z,997.54
2022-07-28T08:59:14.764Z,997.59
2022-07-28T09:00:14.779Z,997.50
2022-07-28T09:01:14.784Z,997.53
2022-07-28T09:02:14.790Z,997.50
2022-07-28T09:03:14.858Z,997.48
2022-07-28T09:04:15.232Z,997.48
2022-07-28T09:05:14.815Z,997.43
2022-07-28T09:06:14.807Z,997.49
2022-07-28T09:07:14.728Z,997.52
2022-07-28T09:08:14.845Z,997.48
2022-07-28T09:09:14.768Z,997.55
2022-07-28T09:10:14.771Z,997.54
2022-07-28T09:11:15.283Z,997.43
2022-07-28T09:12:14.647Z,997.46
2022-07-28T09:13:14.823Z,997.48
2022-07-28T09:14:14.883Z,997.53
2022-07-28T09:15:14.643Z,997.55
2022-07-28T09:16:14.601Z,997.49
2022-07-28T09:17:14.670Z,997.51
2022-07-28T09:18:14.581Z,997.49
2022-07-28T09:19:14.651Z,997.42
2022-07-28T09:20:14.533Z,997.53
2022-07-28T09:21:14.495Z,997.53
2022-07-28T09:22:15.200Z,997.47
2022-07-28T09:23:41.854Z,997.47
2022-07-28T09:24:15.996Z,997.47
2022-07-28T09:25:14.485Z,997.47
2022-07-28T09:26:14.570Z,997.44
2022-07-28T09:27:14.638Z,997.47
2022-07-28T09:28:14.549Z,997.47
2022-07-28T09:29:14.700Z,997.39
2022-07-28T09:30:14.547Z,997.48
2022-07-28T09:31:14.683Z,997.47
2022-07-28T09:32:14.542Z,997.47
2022-07-28T09:33:42.372Z,997.45
2022-07-28T09:34:15.766Z,997.54
2022-07-28T09:35:14.679Z,997.42
2022-07-28T09:36:14.539Z,997.50
2022-07-28T09:37:14.661Z,997.49
2022-07-28T09:38:14.511Z,997.35
2022-07-28T09:39:14.459Z,997.46
2022-07-28T09:40:14.536Z,997.39
2022-07-28T09:41:14.455Z,997.44
2022-07-28T09:42:14.437Z,997.45
2022-07-28T09:43:14.437Z,997.38
2022-07-28T09:44:14.882Z,997.40
2022-07-28T09:45:23.422Z,997.34
2022-07-28T09:46:16.730Z,997.39
2022-07-28T09:47:14.599Z,997.40
2022-07-28T09:48:14.705Z,997.35
2022-07-28T09:49:14.508Z,997.30
2022-07-28T09:50:14.701Z,997.35
2022-07-28T09:51:14.317Z,997.30
2022-07-28T09:52:14.262Z,997.33
2022-07-28T09:53:14.365Z,997.34
2022-07-28T09:54:14.880Z,997.23
2022-07-28T09:55:14.282Z,997.16
2022-07-28T09:56:14.460Z,997.21
2022-07-28T09:57:14.347Z,997.20
2022-07-28T09:58:14.428Z,997.25
2022-07-28T09:59:14.948Z,997.22
2022-07-28T10:00:14.321Z,997.18
2022-07-28T10:01:14.373Z,997.14
2022-07-28T10:02:14.413Z,997.11
2022-07-28T10:03:14.415Z,997.11
2022-07-28T10:04:14.433Z,997.13
2022-07-28T10:05:14.278Z,997.14
2022-07-28T10:06:14.354Z,997.08
2022-07-28T10:07:14.398Z,997.11
2022-07-28T10:08:14.303Z,997.06
2022-07-28T10:09:14.302Z,997.10
2022-07-28T10:10:14.253Z,997.00
2022-07-28T10:11:14.254Z,997.00
2022-07-28T10:12:14.307Z,997.04
2022-07-28T10:13:14.248Z,997.03
2022-07-28T10:14:14.591Z,997.05
2022-07-28T10:15:14.278Z,997.06
2022-07-28T10:16:14.293Z,997.08
2022-07-28T10:17:14.190Z,997.09
2022-07-28T10:18:14.172Z,997.09
2022-07-28T10:19:14.137Z,997.08
2022-07-28T10:20:14.098Z,997.07
2022-07-28T10:21:14.092Z,997.06
2022-07-28T10:22:14.182Z,997.01
2022-07-28T10:23:14.117Z,997.06
2022-07-28T10:24:14.382Z,997.01
2022-07-28T10:25:14.054Z,997.02
2022-07-28T10:26:14.035Z,996.99
2022-07-28T10:27:14.028Z,996.96
2022-07-28T10:28:14.050Z,997.04
2022-07-28T10:29:14.097Z,997.03
2022-07-28T10:30:14.084Z,996.98
2022-07-28T10:31:14.097Z,997.02
2022-07-28T10:32:14.045Z,997.01
2022-07-28T10:33:14.086Z,996.95
2022-07-28T10:34:16.291Z,996.98
2022-07-28T10:35:15.052Z,996.91
2022-07-28T10:36:14.013Z,996.87
2022-07-28T10:37:14.099Z,996.89
2022-07-28T10:38:14.192Z,996.84
2022-07-28T10:39:14.108Z,996.94
2022-07-28T10:40:14.092Z,996.96
2022-07-28T10:41:14.002Z,996.91
2022-07-28T10:42:14.126Z,996.86
2022-07-28T10:43:14.044Z,996.90
2022-07-28T10:44:14.628Z,996.86
2022-07-28T10:45:14.157Z,996.84
2022-07-28T10:46:16.389Z,996.92
2022-07-28T10:47:18.234Z,996.92
2022-07-28T10:48:14.036Z,996.91
2022-07-28T10:49:14.090Z,996.88
2022-07-28T10:50:13.987Z,996.87
2022-07-28T10:51:14.024Z,996.86
2022-07-28T10:52:37.045Z,996.93
2022-07-28T10:53:15.903Z,996.80
2022-07-28T10:54:17.650Z,996.86
2022-07-28T10:55:14.980Z,996.82
2022-07-28T10:56:14.944Z,996.86
2022-07-28T10:57:13.954Z,996.87
2022-07-28T10:58:13.934Z,996.74
2022-07-28T10:59:13.988Z,996.70
2022-07-28T11:00:20.390Z,996.74
2022-07-28T11:01:32.485Z,996.71
2022-07-28T11:02:16.055Z,996.74
2022-07-28T11:03:14.911Z,996.72
2022-07-28T11:04:14.004Z,996.71
2022-07-28T11:05:13.867Z,996.76
2022-07-28T11:06:13.783Z,996.69
2022-07-28T11:07:13.797Z,996.70
2022-07-28T11:08:13.812Z,996.67
2022-07-28T11:09:13.790Z,996.68
2022-07-28T11:10:13.948Z,996.66
2022-07-28T11:11:13.825Z,996.66
2022-07-28T11:12:13.847Z,996.63
2022-07-28T11:13:14.261Z,996.63
2022-07-28T11:14:14.117Z,996.58
2022-07-28T11:15:18.477Z,996.57
2022-07-28T11:16:13.790Z,996.55
2022-07-28T11:17:13.886Z,996.56
2022-07-28T11:18:13.785Z,996.53
2022-07-28T11:19:40.545Z,996.56
2022-07-28T11:20:24.480Z,996.55
2022-07-28T11:21:16.402Z,996.48
2022-07-28T11:22:13.781Z,996.41
2022-07-28T11:23:13.764Z,996.45
2022-07-28T11:24:17.842Z,996.50
2022-07-28T11:25:18.521Z,996.49
2022-07-28T11:26:14.746Z,996.50
2022-07-28T11:27:13.706Z,996.49
2022-07-28T11:28:13.856Z,996.47
2022-07-28T11:29:13.775Z,996.51
2022-07-28T11:30:13.811Z,996.56
2022-07-28T11:31:13.815Z,996.54
2022-07-28T11:32:13.674Z,996.45
2022-07-28T11:33:13.726Z,996.46
2022-07-28T11:34:13.893Z,996.48
2022-07-28T11:35:13.689Z,996.42
2022-07-28T11:36:13.673Z,996.44
2022-07-28T11:37:15.144Z,996.43
2022-07-28T11:38:14.627Z,996.40
2022-07-28T11:39:13.670Z,996.38
2022-07-28T11:40:13.657Z,996.41
2022-07-28T11:41:13.578Z,996.38
2022-07-28T11:42:13.660Z,996.30
2022-07-28T11:43:13.914Z,996.33
2022-07-28T11:44:13.897Z,996.33
2022-07-28T11:45:13.577Z,996.26
2022-07-28T11:46:13.579Z,996.32
2022-07-28T11:47:13.589Z,996.32
2022-07-28T11:48:13.465Z,996.30
2022-07-28T11:49:14.850Z,996.33
2022-07-28T11:50:13.504Z,996.34
2022-07-28T11:51:13.617Z,996.32
2022-07-28T11:52:13.470Z,996.31
2022-07-28T11:53:13.593Z,996.30
2022-07-28T11:54:13.673Z,996.27
2022-07-28T11:55:13.475Z,996.36
2022-07-28T11:56:13.545Z,996.23
2022-07-28T11:57:13.838Z,996.22
2022-07-28T11:58:13.909Z,996.18
2022-07-28T11:59:13.623Z,996.16
2022-07-28T12:00:13.545Z,996.18
2022-07-28T12:01:18.123Z,996.15
2022-07-28T12:02:14.453Z,996.21
2022-07-28T12:03:13.577Z,996.14
2022-07-28T12:04:14.015Z,996.18
2022-07-28T12:05:13.474Z,996.22
2022-07-28T12:06:13.418Z,996.17
2022-07-28T12:07:13.481Z,996.14
2022-07-28T12:08:13.517Z,996.10
2022-07-28T12:09:13.599Z,996.13
2022-07-28T12:10:25.923Z,996.13
2022-07-28T12:11:15.335Z,996.14
2022-07-28T12:12:13.502Z,996.15
2022-07-28T12:13:13.386Z,996.15
2022-07-28T12:14:13.957Z,996.15
2022-07-28T12:15:13.537Z,996.06
2022-07-28T12:16:13.436Z,996.13
2022-07-28T12:17:13.447Z,996.10
2022-07-28T12:18:13.335Z,996.07
2022-07-28T12:19:13.445Z,996.13
2022-07-28T12:20:14.118Z,996.14
2022-07-28T12:21:13.223Z,996.10
2022-07-28T12:22:15.684Z,996.12
2022-07-28T12:23:13.247Z,996.10
2022-07-28T12:24:13.334Z,996.06
2022-07-28T12:25:13.966Z,996.05
2022-07-28T12:26:13.235Z,996.04
2022-07-28T12:27:13.209Z,996.08
2022-07-28T12:28:13.212Z,996.05
2022-07-28T12:29:13.210Z,996.08
2022-07-28T12:30:13.292Z,996.06
2022-07-28T12:31:13.171Z,995.94
2022-07-28T12:32:13.310Z,995.95
2022-07-28T12:33:13.173Z,995.96
2022-07-28T12:34:13.373Z,995.93
2022-07-28T12:35:13.362Z,995.93
2022-07-28T12:36:13.246Z,995.97
2022-07-28T12:37:13.420Z,995.94
2022-07-28T12:38:13.161Z,996.01
2022-07-28T12:39:13.450Z,995.93
2022-07-28T12:40:13.282Z,995.96
2022-07-28T12:41:13.154Z,995.95
2022-07-28T12:42:13.506Z,995.99
2022-07-28T12:43:13.165Z,995.95
2022-07-28T12:44:13.487Z,995.94
2022-07-28T12:45:13.231Z,995.91
2022-07-28T12:46:13.220Z,995.96
2022-07-28T12:47:13.315Z,995.93
2022-07-28T12:48:13.178Z,995.88
2022-07-28T12:49:13.279Z,995.91
2022-07-28T12:50:13.167Z,995.90
2022-07-28T12:51:13.213Z,995.88
2022-07-28T12:52:13.173Z,995.88
2022-07-28T12:53:13.096Z,995.87
2022-07-28T12:54:13.430Z,995.85
2022-07-28T12:55:13.083Z,995.81
2022-07-28T12:56:13.207Z,995.82
2022-07-28T12:57:13.129Z,995.91
2022-07-28T12:58:13.160Z,995.88
2022-07-28T12:59:13.592Z,995.81
2022-07-28T13:00:13.193Z,995.84
2022-07-28T13:01:13.225Z,995.92
2022-07-28T13:02:13.283Z,995.91
2022-07-28T13:03:13.061Z,995.88
2022-07-28T13:04:13.316Z,995.86
2022-07-28T13:05:13.032Z,995.80
2022-07-28T13:06:13.106Z,995.82
2022-07-28T13:07:13.104Z,995.79
2022-07-28T13:08:12.999Z,995.76
2022-07-28T13:09:15.032Z,995.80
2022-07-28T13:10:12.951Z,995.77
2022-07-28T13:11:28.060Z,995.76
2022-07-28T13:12:14.902Z,995.83
2022-07-28T13:13:12.856Z,995.77
2022-07-28T13:14:13.179Z,995.81
2022-07-28T13:15:12.906Z,995.77
2022-07-28T13:16:12.907Z,995.75
2022-07-28T13:17:13.041Z,995.75
2022-07-28T13:18:12.867Z,995.78
2022-07-28T13:19:12.901Z,995.74
2022-07-28T13:20:12.871Z,995.72
2022-07-28T13:21:12.848Z,995.74
2022-07-28T13:22:12.942Z,995.72
2022-07-28T13:23:13.009Z,995.66
2022-07-28T13:24:13.187Z,995.62
2022-07-28T13:25:13.047Z,995.59
2022-07-28T13:26:12.964Z,995.60
2022-07-28T13:27:12.948Z,995.65
2022-07-28T13:28:12.916Z,995.66
2022-07-28T13:29:13.188Z,995.64
2022-07-28T13:30:12.906Z,995.67
2022-07-28T13:31:12.944Z,995.67
2022-07-28T13:32:13.023Z,995.59
2022-07-28T13:33:14.075Z,995.61
2022-07-28T13:34:14.146Z,995.63
2022-07-28T13:35:15.167Z,995.60
2022-07-28T13:36:13.884Z,995.60
2022-07-28T13:37:12.825Z,995.62
2022-07-28T13:38:12.825Z,995.62
2022-07-28T13:39:12.817Z,995.63
2022-07-28T13:40:12.856Z,995.66
2022-07-28T13:41:12.821Z,995.64
2022-07-28T13:42:13.281Z,995.64
2022-07-28T13:43:12.789Z,995.65
2022-07-28T13:44:13.252Z,995.61
2022-07-28T13:45:12.741Z,995.56
2022-07-28T13:46:12.886Z,995.54
2022-07-28T13:47:12.914Z,995.54
2022-07-28T13:48:12.674Z,995.48
2022-07-28T13:49:12.750Z,995.48
2022-07-28T13:50:12.687Z,995.51
2022-07-28T13:51:12.666Z,995.49
2022-07-28T13:52:13.237Z,995.52
2022-07-28T13:53:12.716Z,995.51
2022-07-28T13:54:13.580Z,995.48
2022-07-28T13:55:12.642Z,995.51
2022-07-28T13:56:12.643Z,995.46
2022-07-28T13:57:13.490Z,995.51
2022-07-28T13:58:12.644Z,995.47
2022-07-28T13:59:13.363Z,995.48
2022-07-28T14:00:12.617Z,995.50
2022-07-28T14:01:12.729Z,995.50
2022-07-28T14:02:15.661Z,995.54
2022-07-28T14:03:12.617Z,995.43
2022-07-28T14:04:17.075Z,995.43
2022-07-28T14:05:13.574Z,995.46
2022-07-28T14:06:12.520Z,995.40
2022-07-28T14:07:12.672Z,995.39
2022-07-28T14:08:12.587Z,995.38
2022-07-28T14:09:12.935Z,995.42
2022-07-28T14:10:13.558Z,995.39
2022-07-28T14:11:12.687Z,995.40
2022-07-28T14:12:12.578Z,995.39
2022-07-28T14:13:12.671Z,995.41
2022-07-28T14:14:12.752Z,995.48
2022-07-28T14:15:12.584Z,995.45
2022-07-28T14:16:14.505Z,995.38
2022-07-28T14:17:32.450Z,995.38
2022-07-28T14:18:14.441Z,995.39
2022-07-28T14:19:12.554Z,995.45
2022-07-28T14:20:12.526Z,995.40
2022-07-28T14:21:12.530Z,995.45
2022-07-28T14:22:13.947Z,995.45
2022-07-28T14:23:13.490Z,995.41
2022-07-28T14:24:12.784Z,995.34
2022-07-28T14:25:13.492Z,995.47
2022-07-28T14:26:35.117Z,995.43
2022-07-28T14:27:14.397Z,995.41
2022-07-28T14:28:12.471Z,995.32
2022-07-28T14:29:12.482Z,995.29
2022-07-28T14:30:12.519Z,995.28
2022-07-28T14:31:12.610Z,995.26
2022-07-28T14:32:12.531Z,995.37
2022-07-28T14:33:12.426Z,995.34
2022-07-28T14:34:12.883Z,995.41
2022-07-28T14:35:12.490Z,995.35
2022-07-28T14:36:12.514Z,995.29
2022-07-28T14:37:12.461Z,995.21
2022-07-28T14:39:14.388Z,995.07
2022-07-28T14:40:12.488Z,995.12
2022-07-28T14:41:12.377Z,995.03
2022-07-28T14:42:12.317Z,995.01
2022-07-28T14:43:12.295Z,995.02
2022-07-28T14:44:15.418Z,995.03
2022-07-28T14:45:13.386Z,995.04
2022-07-28T14:46:16.288Z,995.16
2022-07-28T14:47:13.381Z,995.14
2022-07-28T14:48:12.281Z,995.14
2022-07-28T14:49:12.459Z,995.03
2022-07-28T14:50:12.354Z,995.05
2022-07-28T14:51:12.395Z,995.02
2022-07-28T14:52:12.362Z,995.04
2022-07-28T14:53:12.334Z,994.95
2022-07-28T14:54:12.712Z,994.99
2022-07-28T14:55:12.302Z,995.03
2022-07-28T14:56:13.366Z,994.99
2022-07-28T14:57:12.362Z,995.01
2022-07-28T14:58:12.332Z,995.11